createdAt,value
2018-11-28T00:00:59.355Z,996.39
2018-11-28T00:02:09.253Z,996.36
2018-11-28T00:03:19.564Z,996.36
2018-11-28T00:04:29.724Z,996.32
2018-11-28T00:05:39.883Z,996.31
2018-11-28T00:06:50.089Z,996.31
2018-11-28T00:08:00.248Z,996.27
2018-11-28T00:09:10.460Z,996.29
2018-11-28T00:10:20.617Z,996.29
2018-11-28T00:11:30.782Z,996.32
2018-11-28T00:12:40.950Z,996.28
2018-11-28T00:13:51.116Z,996.26
2018-11-28T00:15:01.382Z,996.31
2018-11-28T00:16:11.540Z,996.31
2018-11-28T00:17:21.701Z,996.32
2018-11-28T00:18:31.863Z,996.32
2018-11-28T00:19:42.021Z,996.33
2018-11-28T00:20:52.232Z,996.34
2018-11-28T00:22:02.391Z,996.34
2018-11-28T00:23:12.562Z,996.33
2018-11-28T00:24:22.730Z,996.4
2018-11-28T00:25:32.896Z,996.37
2018-11-28T00:26:43.106Z,996.37
2018-11-28T00:27:53.270Z,996.38
2018-11-28T00:29:03.432Z,996.38
2018-11-28T00:30:13.589Z,996.38
2018-11-28T00:31:23.754Z,996.38
2018-11-28T00:32:34.062Z,996.44
2018-11-28T00:33:44.225Z,996.41
2018-11-28T00:34:54.386Z,996.37
2018-11-28T00:36:04.591Z,996.42
2018-11-28T00:37:14.761Z,996.4
2018-11-28T00:38:25.077Z,996.37
2018-11-28T00:39:35.248Z,996.38
2018-11-28T00:40:45.408Z,996.33
2018-11-28T00:41:55.570Z,996.34
2018-11-28T00:43:05.738Z,996.3
2018-11-28T00:44:15.998Z,996.28
2018-11-28T00:45:26.223Z,996.26
2018-11-28T00:46:36.392Z,996.25
2018-11-28T00:47:46.549Z,996.25
2018-11-28T00:48:56.709Z,996.26
2018-11-28T00:50:06.965Z,996.24
2018-11-28T00:51:17.120Z,996.29
2018-11-28T00:52:27.283Z,996.3
2018-11-28T00:53:37.440Z,996.29
2018-11-28T00:54:47.599Z,996.3
2018-11-28T00:55:57.816Z,996.27
2018-11-28T00:57:07.980Z,996.3
2018-11-28T00:58:18.134Z,996.29
2018-11-28T00:59:28.297Z,996.26
2018-11-28T01:00:38.457Z,996.25
2018-11-28T01:01:48.769Z,996.22
2018-11-28T01:02:58.929Z,996.21
2018-11-28T01:04:09.090Z,996.21
2018-11-28T01:05:19.318Z,996.21
2018-11-28T01:06:29.553Z,996.27
2018-11-28T01:07:39.766Z,996.26
2018-11-28T01:08:49.933Z,996.23
2018-11-28T01:10:00.093Z,996.24
2018-11-28T01:11:10.252Z,996.23
2018-11-28T01:12:20.416Z,996.21
2018-11-28T01:13:30.627Z,996.21
2018-11-28T01:14:40.816Z,996.22
2018-11-28T01:15:50.977Z,996.23
2018-11-28T01:17:01.134Z,996.22
2018-11-28T01:18:11.292Z,996.21
2018-11-28T01:19:21.512Z,996.19
2018-11-28T01:20:31.678Z,996.21
2018-11-28T01:21:41.833Z,996.25
2018-11-28T01:22:52.002Z,996.26
2018-11-28T01:24:02.162Z,996.23
2018-11-28T01:25:12.375Z,996.21
2018-11-28T01:26:22.584Z,996.23
2018-11-28T01:27:32.752Z,996.17
2018-11-28T01:28:46.380Z,996.19
2018-11-28T01:29:56.685Z,996.22
2018-11-28T01:31:06.996Z,996.23
2018-11-28T01:32:17.157Z,996.28
2018-11-28T01:33:27.314Z,996.27
2018-11-28T01:34:37.473Z,996.3
2018-11-28T01:35:47.638Z,996.35
2018-11-28T01:36:57.952Z,996.3
2018-11-28T01:38:08.113Z,996.32
2018-11-28T01:39:18.275Z,996.3
2018-11-28T01:40:28.436Z,996.29
2018-11-28T01:41:38.601Z,996.32
2018-11-28T01:42:48.819Z,996.3
2018-11-28T01:43:58.980Z,996.26
2018-11-28T01:45:09.142Z,996.3
2018-11-28T01:46:19.310Z,996.25
2018-11-28T01:47:29.473Z,996.23
2018-11-28T01:48:39.785Z,996.14
2018-11-28T01:49:49.949Z,996.14
2018-11-28T01:51:00.112Z,996.13
2018-11-28T01:52:10.323Z,996.1
2018-11-28T01:53:20.483Z,996.1
2018-11-28T01:54:30.742Z,996.08
2018-11-28T01:55:40.901Z,996.07
2018-11-28T01:56:51.060Z,996.12
2018-11-28T01:58:01.216Z,996.1
2018-11-28T01:59:11.379Z,996.12
2018-11-28T02:00:21.590Z,996.14
2018-11-28T02:01:31.757Z,996.15
2018-11-28T02:02:41.922Z,996.21
2018-11-28T02:03:52.077Z,996.19
2018-11-28T02:05:02.243Z,996.21
2018-11-28T02:06:12.552Z,996.25
2018-11-28T02:07:22.708Z,996.21
2018-11-28T02:08:32.877Z,996.28
2018-11-28T02:09:43.050Z,996.28
2018-11-28T02:10:53.228Z,996.24
2018-11-28T02:12:03.440Z,996.26
2018-11-28T02:13:13.597Z,996.27
2018-11-28T02:14:23.759Z,996.27
2018-11-28T02:15:33.923Z,996.27
2018-11-28T02:16:44.087Z,996.27
2018-11-28T02:17:54.295Z,996.27
2018-11-28T02:19:04.460Z,996.29
2018-11-28T02:20:14.630Z,996.29
2018-11-28T02:21:24.791Z,996.33
2018-11-28T02:22:34.945Z,996.31
2018-11-28T02:23:45.220Z,996.28
2018-11-28T02:24:55.387Z,996.28
2018-11-28T02:26:05.550Z,996.26
2018-11-28T02:27:15.719Z,996.22
2018-11-28T02:28:25.885Z,996.23
2018-11-28T02:29:36.202Z,996.22
2018-11-28T02:30:46.361Z,996.21
2018-11-28T02:31:56.522Z,996.21
2018-11-28T02:33:06.696Z,996.25
2018-11-28T02:34:16.858Z,996.25
2018-11-28T02:35:27.070Z,996.23
2018-11-28T02:36:37.235Z,996.27
2018-11-28T02:37:47.136Z,996.27
2018-11-28T02:38:57.302Z,996.29
2018-11-28T02:40:07.469Z,996.26
2018-11-28T02:41:17.791Z,996.18
2018-11-28T02:42:27.961Z,996.17
2018-11-28T02:43:38.127Z,996.21
2018-11-28T02:44:48.288Z,996.23
2018-11-28T02:45:58.461Z,996.23
2018-11-28T02:47:08.832Z,996.29
2018-11-28T02:48:18.990Z,996.26
2018-11-28T02:49:29.153Z,996.31
2018-11-28T02:50:39.317Z,996.3
2018-11-28T02:51:49.480Z,996.33
2018-11-28T02:52:59.747Z,996.31
2018-11-28T02:54:09.956Z,996.32
2018-11-28T02:55:20.114Z,996.3
2018-11-28T02:56:30.285Z,996.3
2018-11-28T02:57:40.454Z,996.23
2018-11-28T02:58:50.841Z,996.27
2018-11-28T03:00:01.014Z,996.27
2018-11-28T03:01:11.179Z,996.37
2018-11-28T03:02:21.346Z,996.39
2018-11-28T03:03:31.511Z,996.4
2018-11-28T03:04:41.772Z,996.39
2018-11-28T03:05:51.932Z,996.41
2018-11-28T03:07:02.100Z,996.38
2018-11-28T03:08:12.274Z,996.41
2018-11-28T03:09:22.444Z,996.38
2018-11-28T03:10:32.771Z,996.33
2018-11-28T03:11:43.000Z,996.34
2018-11-28T03:12:53.177Z,996.35
2018-11-28T03:14:03.344Z,996.38
2018-11-28T03:15:13.521Z,996.36
2018-11-28T03:16:23.742Z,996.38
2018-11-28T03:17:33.903Z,996.36
2018-11-28T03:18:44.064Z,996.38
2018-11-28T03:19:54.233Z,996.33
2018-11-28T03:21:04.408Z,996.4
2018-11-28T03:22:14.623Z,996.45
2018-11-28T03:23:24.782Z,996.48
2018-11-28T03:24:34.732Z,996.46
2018-11-28T03:25:44.917Z,996.42
2018-11-28T03:26:55.105Z,996.39
2018-11-28T03:28:05.373Z,996.41
2018-11-28T03:29:15.560Z,996.41
2018-11-28T03:30:25.733Z,996.34
2018-11-28T03:31:35.910Z,996.26
2018-11-28T03:32:46.094Z,996.22
2018-11-28T03:33:56.399Z,996.2
2018-11-28T03:35:06.581Z,996.19
2018-11-28T03:36:16.768Z,996.22
2018-11-28T03:37:26.934Z,996.2
2018-11-28T03:38:37.099Z,996.19
2018-11-28T03:39:47.413Z,996.17
2018-11-28T03:40:57.580Z,996.17
2018-11-28T03:42:07.755Z,996.1
2018-11-28T03:43:17.934Z,996.09
2018-11-28T03:44:28.106Z,996.16
2018-11-28T03:45:38.418Z,996.13
2018-11-28T03:46:48.583Z,996.1
2018-11-28T03:47:58.750Z,996.11
2018-11-28T03:49:08.914Z,996.11
2018-11-28T03:50:19.083Z,996.15
2018-11-28T03:51:29.411Z,996.08
2018-11-28T03:52:39.315Z,996.1
2018-11-28T03:53:49.510Z,996.14
2018-11-28T03:54:59.703Z,996.13
2018-11-28T03:56:09.877Z,996.14
2018-11-28T03:57:20.194Z,996.17
2018-11-28T03:58:30.370Z,996.18
2018-11-28T03:59:40.549Z,996.2
2018-11-28T04:00:50.732Z,996.2
2018-11-28T04:02:00.924Z,996.19
2018-11-28T04:03:11.364Z,996.2
2018-11-28T04:04:21.527Z,996.17
2018-11-28T04:05:31.693Z,996.14
2018-11-28T04:06:41.860Z,996.14
2018-11-28T04:07:52.024Z,996.12
2018-11-28T04:09:02.292Z,996.11
2018-11-28T04:10:12.471Z,996.07
2018-11-28T04:11:22.663Z,996.14
2018-11-28T04:12:32.628Z,996.19
2018-11-28T04:13:42.814Z,996.13
2018-11-28T04:14:53.138Z,996.12
2018-11-28T04:16:03.320Z,996.09
2018-11-28T04:17:13.489Z,996.08
2018-11-28T04:18:23.651Z,996.09
2018-11-28T04:19:33.830Z,996.11
2018-11-28T04:20:44.186Z,996.18
2018-11-28T04:21:54.363Z,996.16
2018-11-28T04:23:04.523Z,996.14
2018-11-28T04:24:14.682Z,996.05
2018-11-28T04:25:24.845Z,996.09
2018-11-28T04:26:35.153Z,996.04
2018-11-28T04:27:45.313Z,996.04
2018-11-28T04:28:55.480Z,996.06
2018-11-28T04:30:05.649Z,996.03
2018-11-28T04:31:15.820Z,996.11
2018-11-28T04:32:26.088Z,996.06
2018-11-28T04:33:36.275Z,996.07
2018-11-28T04:34:46.442Z,996.04
2018-11-28T04:35:56.605Z,996.05
2018-11-28T04:37:06.770Z,996.03
2018-11-28T04:38:17.047Z,996.04
2018-11-28T04:39:27.224Z,995.99
2018-11-28T04:40:37.396Z,995.96
2018-11-28T04:41:47.558Z,996
2018-11-28T04:42:57.512Z,995.99
2018-11-28T04:44:07.732Z,995.97
2018-11-28T04:45:17.894Z,996
2018-11-28T04:46:28.058Z,996.01
2018-11-28T04:47:38.222Z,996.02
2018-11-28T04:48:48.400Z,996.03
2018-11-28T04:49:58.661Z,996.04
2018-11-28T04:51:08.847Z,996.05
2018-11-28T04:52:19.020Z,996.08
2018-11-28T04:53:29.186Z,996.04
2018-11-28T04:54:39.355Z,996.05
2018-11-28T04:55:49.671Z,996.02
2018-11-28T04:56:59.864Z,996.01
2018-11-28T04:58:10.041Z,995.99
2018-11-28T04:59:20.201Z,996.01
2018-11-28T05:00:30.360Z,996.05
2018-11-28T05:01:40.525Z,996.02
2018-11-28T05:02:50.697Z,996.07
2018-11-28T05:04:00.859Z,996.03
2018-11-28T05:05:11.226Z,996.02
2018-11-28T05:06:21.389Z,996.05
2018-11-28T05:07:31.338Z,996.03
2018-11-28T05:08:41.501Z,996.05
2018-11-28T05:09:51.676Z,996.06
2018-11-28T05:11:01.848Z,996.05
2018-11-28T05:12:12.007Z,996.02
2018-11-28T05:13:22.326Z,996.06
2018-11-28T05:14:32.501Z,996.08
2018-11-28T05:15:42.731Z,996.08
2018-11-28T05:16:52.894Z,996.06
2018-11-28T05:18:03.053Z,996.07
2018-11-28T05:19:13.268Z,996.07
2018-11-28T05:20:23.427Z,996.05
2018-11-28T05:21:33.585Z,996.09
2018-11-28T05:22:43.745Z,996.15
2018-11-28T05:23:53.903Z,996.1
2018-11-28T05:25:04.163Z,996.16
2018-11-28T05:26:14.322Z,996.15
2018-11-28T05:27:24.482Z,996.19
2018-11-28T05:28:34.646Z,996.22
2018-11-28T05:29:44.804Z,996.2
2018-11-28T05:30:55.012Z,996.16
2018-11-28T05:32:04.912Z,996.13
2018-11-28T05:33:15.077Z,996.15
2018-11-28T05:34:25.250Z,996.15
2018-11-28T05:35:35.141Z,996.18
2018-11-28T05:36:45.186Z,996.18
2018-11-28T05:37:55.356Z,996.17
2018-11-28T05:39:05.527Z,996.2
2018-11-28T05:40:15.689Z,996.15
2018-11-28T05:41:25.855Z,996.13
2018-11-28T05:42:36.166Z,996.13
2018-11-28T05:43:46.327Z,996.14
2018-11-28T05:44:56.490Z,996.18
2018-11-28T05:46:06.653Z,996.19
2018-11-28T05:47:16.812Z,996.22
2018-11-28T05:48:27.030Z,996.22
2018-11-28T05:49:37.207Z,996.25
2018-11-28T05:50:47.371Z,996.29
2018-11-28T05:51:57.527Z,996.3
2018-11-28T05:53:07.697Z,996.28
2018-11-28T05:54:17.918Z,996.31
2018-11-28T05:55:28.091Z,996.33
2018-11-28T05:56:38.255Z,996.39
2018-11-28T05:57:48.420Z,996.44
2018-11-28T05:58:58.583Z,996.37
2018-11-28T06:00:09.018Z,996.37
2018-11-28T06:01:19.180Z,996.37
2018-11-28T06:02:29.346Z,996.38
2018-11-28T06:03:39.511Z,996.49
2018-11-28T06:04:49.674Z,996.46
2018-11-28T06:05:59.995Z,996.46
2018-11-28T06:07:10.170Z,996.4
2018-11-28T06:08:20.327Z,996.4
2018-11-28T06:09:30.504Z,996.42
2018-11-28T06:10:40.665Z,996.36
2018-11-28T06:11:50.976Z,996.29
2018-11-28T06:13:01.137Z,996.34
2018-11-28T06:14:11.324Z,996.31
2018-11-28T06:15:21.482Z,996.33
2018-11-28T06:16:31.371Z,996.27
2018-11-28T06:17:41.684Z,996.27
2018-11-28T06:18:51.853Z,996.29
2018-11-28T06:20:02.012Z,996.32
2018-11-28T06:21:12.187Z,996.23
2018-11-28T06:22:22.347Z,996.23
2018-11-28T06:23:32.660Z,996.25
2018-11-28T06:24:42.822Z,996.28
2018-11-28T06:25:52.983Z,996.28
2018-11-28T06:27:03.150Z,996.33
2018-11-28T06:28:13.318Z,996.34
2018-11-28T06:29:23.630Z,996.34
2018-11-28T06:30:33.792Z,996.38
2018-11-28T06:31:43.685Z,996.41
2018-11-28T06:32:53.854Z,996.4
2018-11-28T06:34:04.025Z,996.4
2018-11-28T06:35:14.343Z,996.36
2018-11-28T06:36:24.507Z,996.34
2018-11-28T06:37:34.673Z,996.33
2018-11-28T06:38:44.855Z,996.32
2018-11-28T06:39:55.026Z,996.33
2018-11-28T06:41:05.341Z,996.33
2018-11-28T06:42:15.508Z,996.36
2018-11-28T06:43:25.669Z,996.38
2018-11-28T06:44:35.827Z,996.37
2018-11-28T06:45:45.985Z,996.37
2018-11-28T06:46:56.243Z,996.4
2018-11-28T06:48:06.411Z,996.41
2018-11-28T06:49:16.568Z,996.37
2018-11-28T06:50:26.729Z,996.35
2018-11-28T06:51:36.889Z,996.35
2018-11-28T06:52:47.101Z,996.36
2018-11-28T06:53:57.272Z,996.31
2018-11-28T06:55:07.437Z,996.37
2018-11-28T06:56:17.645Z,996.37
2018-11-28T06:57:27.828Z,996.4
2018-11-28T06:58:37.988Z,996.36
2018-11-28T06:59:48.148Z,996.41
2018-11-28T07:00:58.355Z,996.41
2018-11-28T07:02:08.517Z,996.45
2018-11-28T07:03:18.680Z,996.49
2018-11-28T07:04:28.946Z,996.44
2018-11-28T07:05:39.108Z,996.43
2018-11-28T07:06:49.270Z,996.39
2018-11-28T07:07:59.436Z,996.4
2018-11-28T07:09:09.598Z,996.41
2018-11-28T07:10:19.807Z,996.36
2018-11-28T07:11:29.966Z,996.33
2018-11-28T07:12:40.124Z,996.35
2018-11-28T07:13:50.343Z,996.33
2018-11-28T07:15:00.553Z,996.3
2018-11-28T07:16:10.770Z,996.25
2018-11-28T07:17:20.933Z,996.19
2018-11-28T07:18:31.102Z,996.2
2018-11-28T07:19:41.305Z,996.23
2018-11-28T07:20:51.565Z,996.25
2018-11-28T07:22:01.864Z,996.29
2018-11-28T07:23:12.064Z,996.22
2018-11-28T07:24:21.966Z,996.25
2018-11-28T07:25:32.137Z,996.26
2018-11-28T07:26:42.293Z,996.27
2018-11-28T07:27:52.563Z,996.26
2018-11-28T07:29:02.729Z,996.26
2018-11-28T07:30:12.888Z,996.24
2018-11-28T07:31:23.116Z,996.24
2018-11-28T07:32:33.278Z,996.19
2018-11-28T07:33:43.540Z,996.15
2018-11-28T07:34:53.714Z,996.2
2018-11-28T07:36:03.879Z,996.14
2018-11-28T07:37:14.039Z,996.13
2018-11-28T07:38:24.198Z,996.13
2018-11-28T07:39:34.410Z,996.11
2018-11-28T07:40:44.635Z,996.07
2018-11-28T07:41:54.798Z,996.1
2018-11-28T07:43:04.966Z,996.08
2018-11-28T07:44:15.164Z,996.03
2018-11-28T07:45:25.705Z,996.04
2018-11-28T07:46:35.879Z,996.04
2018-11-28T07:47:46.045Z,996.05
2018-11-28T07:48:56.214Z,996.02
2018-11-28T07:50:06.375Z,995.98
2018-11-28T07:51:16.689Z,996.03
2018-11-28T07:52:26.860Z,996.04
2018-11-28T07:53:37.025Z,996.03
2018-11-28T07:54:47.189Z,996.05
2018-11-28T07:55:57.087Z,996.08
2018-11-28T07:57:07.307Z,996.04
2018-11-28T07:58:17.524Z,996.1
2018-11-28T07:59:27.431Z,996.09
2018-11-28T08:00:37.603Z,996.08
2018-11-28T08:01:47.769Z,996.05
2018-11-28T08:02:58.079Z,996.04
2018-11-28T08:04:08.252Z,996.06
2018-11-28T08:05:18.588Z,996.03
2018-11-28T08:06:28.756Z,996.09
2018-11-28T08:07:38.920Z,996.13
2018-11-28T08:08:49.188Z,996.2
2018-11-28T08:09:59.350Z,996.17
2018-11-28T08:11:09.645Z,996.19
2018-11-28T08:12:19.880Z,996.17
2018-11-28T08:13:30.041Z,996.15
2018-11-28T08:14:40.260Z,996.13
2018-11-28T08:15:50.427Z,996.11
2018-11-28T08:17:00.590Z,996.12
2018-11-28T08:18:10.766Z,996.1
2018-11-28T08:19:23.959Z,996.08
2018-11-28T08:20:34.164Z,996.11
2018-11-28T08:21:44.333Z,996.09
2018-11-28T08:22:55.519Z,996.1
2018-11-28T08:24:05.699Z,996.16
2018-11-28T08:25:15.865Z,996.1
2018-11-28T08:26:30.889Z,996.14
2018-11-28T08:27:41.220Z,996.11
2018-11-28T08:28:51.509Z,996.09
2018-11-28T08:30:01.675Z,996.1
2018-11-28T08:31:11.837Z,996.12
2018-11-28T08:32:22.058Z,996.16
2018-11-28T08:33:32.284Z,996.18
2018-11-28T08:34:42.449Z,996.21
2018-11-28T08:35:52.616Z,996.18
2018-11-28T08:37:02.778Z,996.24
2018-11-28T08:38:13.040Z,996.25
2018-11-28T08:39:23.206Z,996.24
2018-11-28T08:40:33.383Z,996.2
2018-11-28T08:41:43.561Z,996.14
2018-11-28T08:42:53.727Z,996.15
2018-11-28T08:44:04.113Z,996.12
2018-11-28T08:45:14.324Z,996.08
2018-11-28T08:46:24.833Z,996.11
2018-11-28T08:47:35.003Z,996.12
2018-11-28T08:48:45.164Z,996.13
2018-11-28T08:49:55.329Z,996.18
2018-11-28T08:51:05.498Z,996.24
2018-11-28T08:52:15.670Z,996.26
2018-11-28T08:53:25.856Z,996.23
2018-11-28T08:54:36.029Z,996.24
2018-11-28T08:55:46.342Z,996.28
2018-11-28T08:56:56.506Z,996.26
2018-11-28T08:58:07.238Z,996.24
2018-11-28T08:59:17.404Z,996.22
2018-11-28T09:00:27.308Z,996.22
2018-11-28T09:01:37.520Z,996.24
2018-11-28T09:02:47.686Z,996.18
2018-11-28T09:03:57.858Z,996.22
2018-11-28T09:05:08.168Z,996.26
2018-11-28T09:06:18.351Z,996.32
2018-11-28T09:07:28.570Z,996.26
2018-11-28T09:08:38.732Z,996.21
2018-11-28T09:09:49.791Z,996.24
2018-11-28T09:10:59.791Z,996.26
2018-11-28T09:12:09.961Z,996.29
2018-11-28T09:13:20.174Z,996.36
2018-11-28T09:14:30.400Z,996.34
2018-11-28T09:15:40.570Z,996.36
2018-11-28T09:16:50.732Z,996.37
2018-11-28T09:18:00.939Z,996.4
2018-11-28T09:19:11.303Z,996.37
2018-11-28T09:20:21.465Z,996.35
2018-11-28T09:23:54.760Z,996.31
2018-11-28T09:25:04.931Z,996.25
2018-11-28T09:26:15.134Z,996.25
2018-11-28T09:27:25.302Z,996.26
2018-11-28T09:28:35.211Z,996.29
2018-11-28T09:29:45.427Z,996.29
2018-11-28T09:30:55.589Z,996.28
2018-11-28T09:32:05.808Z,996.29
2018-11-28T09:33:15.972Z,996.3
2018-11-28T09:34:26.149Z,996.23
2018-11-28T09:35:36.467Z,996.22
2018-11-28T09:36:46.639Z,996.22
2018-11-28T09:37:56.801Z,996.17
2018-11-28T09:39:06.965Z,996.15
2018-11-28T09:40:17.133Z,996.13
2018-11-28T09:41:27.557Z,996.2
2018-11-28T09:42:37.718Z,996.18
2018-11-28T09:43:47.893Z,996.18
2018-11-28T09:44:58.069Z,996.15
2018-11-28T09:46:07.964Z,996.13
2018-11-28T09:47:18.229Z,996.12
2018-11-28T09:48:28.121Z,996.15
2018-11-28T09:49:38.011Z,996.06
2018-11-28T09:50:48.170Z,996.04
2018-11-28T09:51:58.336Z,996.06
2018-11-28T09:53:08.657Z,996.06
2018-11-28T09:54:18.819Z,996.04
2018-11-28T09:55:28.982Z,995.98
2018-11-28T09:56:39.162Z,995.96
2018-11-28T09:57:49.366Z,995.92
2018-11-28T09:58:59.618Z,995.92
2018-11-28T10:00:09.783Z,995.96
2018-11-28T10:01:19.958Z,995.9
2018-11-28T10:02:30.120Z,995.88
2018-11-28T10:03:40.278Z,995.82
2018-11-28T10:04:50.691Z,995.81
2018-11-28T10:06:05.749Z,995.82
2018-11-28T10:07:15.909Z,995.8
2018-11-28T10:08:26.070Z,995.84
2018-11-28T10:09:36.239Z,995.84
2018-11-28T10:10:46.402Z,995.84
2018-11-28T10:11:56.576Z,995.9
2018-11-28T10:13:06.741Z,995.83
2018-11-28T10:14:16.903Z,995.88
2018-11-28T10:15:27.070Z,995.92
2018-11-28T10:16:43.727Z,995.89
2018-11-28T10:17:57.463Z,995.88
2018-11-28T10:19:07.639Z,995.83
2018-11-28T10:20:17.798Z,995.79
2018-11-28T10:21:27.966Z,995.73
2018-11-28T10:22:38.233Z,995.73
2018-11-28T10:23:48.397Z,995.67
2018-11-28T10:24:58.562Z,995.71
2018-11-28T10:26:08.740Z,995.72
2018-11-28T10:27:18.902Z,995.74
2018-11-28T10:28:29.166Z,995.74
2018-11-28T10:29:39.063Z,995.74
2018-11-28T10:30:49.225Z,995.78
2018-11-28T10:31:59.391Z,995.79
2018-11-28T10:33:09.577Z,995.82
2018-11-28T10:34:19.746Z,995.78
2018-11-28T10:35:34.875Z,995.76
2018-11-28T10:36:45.038Z,995.73
2018-11-28T10:37:55.204Z,995.71
2018-11-28T10:39:05.369Z,995.71
2018-11-28T10:40:15.579Z,995.65
2018-11-28T10:41:25.742Z,995.64
2018-11-28T10:42:35.914Z,995.61
2018-11-28T10:43:46.121Z,995.62
2018-11-28T10:44:56.291Z,995.63
2018-11-28T10:46:06.571Z,995.66
2018-11-28T10:47:16.752Z,995.62
2018-11-28T10:48:26.929Z,995.58
2018-11-28T10:49:37.116Z,995.62
2018-11-28T10:50:47.293Z,995.6
2018-11-28T10:51:57.570Z,995.59
2018-11-28T10:53:08.173Z,995.55
2018-11-28T10:54:18.086Z,995.58
2018-11-28T10:55:28.260Z,995.54
2018-11-28T10:56:38.446Z,995.6
2018-11-28T10:57:48.673Z,995.56
2018-11-28T10:58:58.589Z,995.59
2018-11-28T11:00:08.768Z,995.52
2018-11-28T11:01:18.948Z,995.52
2018-11-28T11:02:29.427Z,995.56
2018-11-28T11:03:39.606Z,995.54
2018-11-28T11:04:49.789Z,995.55
2018-11-28T11:06:00.031Z,995.53
2018-11-28T11:07:10.216Z,995.48
2018-11-28T11:08:20.430Z,995.46
2018-11-28T11:09:30.612Z,995.45
2018-11-28T11:10:40.796Z,995.39
2018-11-28T11:11:51.377Z,995.44
2018-11-28T11:13:01.556Z,995.43
2018-11-28T11:14:11.743Z,995.39
2018-11-28T11:15:21.925Z,995.38
2018-11-28T11:16:32.101Z,995.36
2018-11-28T11:17:42.280Z,995.29
2018-11-28T11:18:52.459Z,995.31
2018-11-28T11:20:02.702Z,995.27
2018-11-28T11:21:12.965Z,995.22
2018-11-28T11:22:23.154Z,995.22
2018-11-28T11:23:33.085Z,995.15
2018-11-28T11:24:43.271Z,995.15
2018-11-28T11:25:53.452Z,995.14
2018-11-28T11:27:03.731Z,995.11
2018-11-28T11:28:13.911Z,995.11
2018-11-28T11:29:24.093Z,995.09
2018-11-28T11:30:34.270Z,995.03
2018-11-28T11:31:44.451Z,995.05
2018-11-28T11:32:54.745Z,995.04
2018-11-28T11:34:04.925Z,995.04
2018-11-28T11:35:15.486Z,995.04
2018-11-28T11:36:25.706Z,995.08
2018-11-28T11:37:35.890Z,995.14
2018-11-28T11:38:46.066Z,995.14
2018-11-28T11:39:57.315Z,995.17
2018-11-28T11:41:07.565Z,995.15
2018-11-28T11:42:17.744Z,995.09
2018-11-28T11:43:28.267Z,995.1
2018-11-28T11:44:38.547Z,995.07
2018-11-28T11:45:48.730Z,995.09
2018-11-28T11:46:58.917Z,995.03
2018-11-28T11:48:09.114Z,994.98
2018-11-28T11:49:19.025Z,995
2018-11-28T11:50:29.310Z,994.97
2018-11-28T11:51:39.497Z,994.95
2018-11-28T11:52:49.692Z,994.97
2018-11-28T11:53:59.892Z,995.04
2018-11-28T11:55:10.448Z,995.01
2018-11-28T11:56:21.412Z,994.92
2018-11-28T11:57:31.592Z,994.93
2018-11-28T11:58:41.776Z,994.94
2018-11-28T11:59:52.018Z,994.93
2018-11-28T12:01:02.573Z,994.91
2018-11-28T12:02:12.757Z,994.93
2018-11-28T12:03:22.941Z,994.91
2018-11-28T12:04:33.121Z,994.89
2018-11-28T12:05:43.349Z,994.88
2018-11-28T12:06:53.536Z,994.83
2018-11-28T12:08:03.881Z,994.83
2018-11-28T12:09:14.065Z,994.8
2018-11-28T12:10:24.251Z,994.76
2018-11-28T12:11:34.435Z,994.76
2018-11-28T12:12:44.355Z,994.75
2018-11-28T12:13:59.581Z,994.73
2018-11-28T12:15:09.773Z,994.77
2018-11-28T12:16:21.602Z,994.76
2018-11-28T12:17:31.943Z,994.8
2018-11-28T12:18:42.127Z,994.76
2018-11-28T12:19:52.413Z,994.72
2018-11-28T12:21:02.604Z,994.71
2018-11-28T12:22:12.788Z,994.65
2018-11-28T12:23:22.972Z,994.65
2018-11-28T12:24:33.157Z,994.64
2018-11-28T12:25:43.336Z,994.61
2018-11-28T12:26:53.521Z,994.58
2018-11-28T12:28:03.699Z,994.58
2018-11-28T12:29:14.603Z,994.51
2018-11-28T12:30:24.856Z,994.54
2018-11-28T12:31:35.090Z,994.53
2018-11-28T12:32:45.270Z,994.5
2018-11-28T12:33:55.460Z,994.44
2018-11-28T12:35:05.652Z,994.36
2018-11-28T12:36:15.848Z,994.34
2018-11-28T12:37:26.030Z,994.37
2018-11-28T12:38:36.279Z,994.34
2018-11-28T12:39:46.511Z,994.33
2018-11-28T12:40:56.702Z,994.25
2018-11-28T12:42:06.632Z,994.24
2018-11-28T12:43:16.828Z,994.23
2018-11-28T12:44:27.060Z,994.23
2018-11-28T12:45:37.236Z,994.21
2018-11-28T12:46:47.428Z,994.21
2018-11-28T12:47:57.614Z,994.22
2018-11-28T12:49:07.900Z,994.18
2018-11-28T12:50:18.090Z,994.15
2018-11-28T12:51:28.270Z,994.14
2018-11-28T12:52:38.466Z,994.1
2018-11-28T12:53:48.644Z,994.07
2018-11-28T12:54:58.868Z,994.04
2018-11-28T12:56:09.047Z,994.03
2018-11-28T12:57:19.265Z,993.99
2018-11-28T12:58:29.447Z,994.02
2018-11-28T12:59:39.630Z,994.02
2018-11-28T13:00:49.909Z,993.99
2018-11-28T13:02:00.095Z,994.02
2018-11-28T13:03:10.274Z,993.97
2018-11-28T13:04:20.470Z,993.94
2018-11-28T13:05:30.650Z,993.97
2018-11-28T13:06:40.875Z,993.94
2018-11-28T13:07:51.059Z,993.88
2018-11-28T13:09:01.238Z,993.91
2018-11-28T13:10:11.467Z,993.9
2018-11-28T13:11:21.644Z,993.92
2018-11-28T13:12:31.815Z,993.91
2018-11-28T13:13:41.991Z,993.91
2018-11-28T13:14:52.166Z,993.86
2018-11-28T13:16:02.342Z,993.85
2018-11-28T13:17:12.531Z,993.82
2018-11-28T13:18:22.705Z,993.8
2018-11-28T13:19:32.896Z,993.78
2018-11-28T13:20:43.167Z,993.78
2018-11-28T13:21:53.351Z,993.73
2018-11-28T13:23:03.528Z,993.72
2018-11-28T13:24:13.546Z,993.74
2018-11-28T13:25:23.728Z,993.74
2018-11-28T13:26:33.904Z,993.75
2018-11-28T13:27:44.084Z,993.73
2018-11-28T13:28:54.267Z,993.74
2018-11-28T13:30:04.553Z,993.73
2018-11-28T13:31:14.732Z,993.71
2018-11-28T13:32:24.922Z,993.65
2018-11-28T13:33:35.099Z,993.7
2018-11-28T13:34:45.286Z,993.66
2018-11-28T13:35:55.478Z,993.66
2018-11-28T13:37:05.702Z,993.66
2018-11-28T13:38:15.886Z,993.62
2018-11-28T13:39:25.808Z,993.64
2018-11-28T13:40:35.991Z,993.6
2018-11-28T13:41:46.178Z,993.58
2018-11-28T13:42:56.355Z,993.53
2018-11-28T13:44:06.549Z,993.46
2018-11-28T13:45:16.723Z,993.52
2018-11-28T13:46:26.914Z,993.52
2018-11-28T13:47:36.825Z,993.52
2018-11-28T13:48:47.004Z,993.55
2018-11-28T13:49:57.178Z,993.59
2018-11-28T13:51:07.361Z,993.6
2018-11-28T13:52:17.538Z,993.6
2018-11-28T13:53:27.713Z,993.54
2018-11-28T13:55:08.777Z,993.51
2018-11-28T13:58:05.879Z,993.55
2018-11-28T13:59:16.054Z,993.54
2018-11-28T14:00:26.227Z,993.49
2018-11-28T14:01:36.410Z,993.45
2018-11-28T14:02:46.582Z,993.44
2018-11-28T14:03:56.767Z,993.43
2018-11-28T14:05:07.053Z,993.45
2018-11-28T14:06:17.233Z,993.43
2018-11-28T14:07:27.405Z,993.42
2018-11-28T14:08:37.589Z,993.42
2018-11-28T14:09:47.848Z,993.44
2018-11-28T14:10:58.126Z,993.43
2018-11-28T14:12:08.301Z,993.52
2018-11-28T14:13:18.487Z,993.46
2018-11-28T14:14:28.478Z,993.49
2018-11-28T14:15:38.658Z,993.39
2018-11-28T14:16:48.932Z,993.39
2018-11-28T14:17:59.107Z,993.36
2018-11-28T14:19:09.284Z,993.36
2018-11-28T14:20:19.753Z,993.41
2018-11-28T14:21:29.942Z,993.41
2018-11-28T14:22:40.238Z,993.24
2018-11-28T14:23:50.418Z,993.26
2018-11-28T14:25:00.594Z,993.24
2018-11-28T14:26:10.765Z,993.19
2018-11-28T14:27:20.673Z,993.19
2018-11-28T14:28:30.944Z,993.26
2018-11-28T14:29:41.155Z,993.24
2018-11-28T14:30:51.333Z,993.16
2018-11-28T14:32:01.522Z,993.17
2018-11-28T14:33:11.715Z,993.19
2018-11-28T14:34:21.950Z,993.24
2018-11-28T14:35:32.122Z,993.28
2018-11-28T14:36:42.329Z,993.27
2018-11-28T14:37:52.579Z,993.27
2018-11-28T14:39:02.762Z,993.28
2018-11-28T14:40:13.130Z,993.23
2018-11-28T14:41:23.307Z,993.21
2018-11-28T14:42:34.105Z,993.17
2018-11-28T14:43:44.025Z,993.22